Time;durP1;ratioP1;P1;durP2;ratioP2;P2;SDS_P1;SDS_P2;PMS_P1;PMS_P2;Temp;Humidity;BMP_temperature;BMP_pressure;BME280_temperature;BME280_humidity;BME280_pressure;Samples;Min_cycle;Max_cycle;Signal;HPM_P1;HPM_P2
2022/05/05 00:02:08;;;;;;;;;;;21.30;46.80;;;;;;5164453;27;19929;-57
2022/05/05 00:04:33;;;;;;;;;;;21.30;46.70;;;;;;5169997;27;20141;-58
2022/05/05 00:07:02;;;;;;;;;;;21.30;46.80;;;;;;5164674;27;19976;-57
2022/05/05 00:09:28;;;;;;;;;;;21.20;47.00;;;;;;5164598;27;20419;-58
2022/05/05 00:14:40;;;;;;;;;;;21.20;47.10;;;;;;5162330;27;20025;-57
2022/05/05 00:17:06;;;;;;;;;;;21.10;47.40;;;;;;5164097;27;20243;-56
2022/05/05 00:19:35;;;;;;;;;;;21.10;47.40;;;;;;5169836;27;19945;-58
2022/05/05 00:22:01;;;;;;;;;;;21.00;47.60;;;;;;5164040;27;19949;-54
2022/05/05 00:24:27;;;;;;;;;;;21.10;47.30;;;;;;5169539;27;19923;-55
2022/05/05 00:26:52;;;;;;;;;;;21.00;47.40;;;;;;5164630;27;19928;-56
2022/05/05 00:29:18;;;;;;;;;;;21.10;47.10;;;;;;5164156;27;19923;-57
2022/05/05 00:31:44;;;;;;;;;;;21.10;47.20;;;;;;5166458;27;19927;-57
2022/05/05 00:34:10;;;;;;;;;;;21.20;47.10;;;;;;5163076;27;19971;-57
2022/05/05 00:36:36;;;;;;;;;;;21.20;47.10;;;;;;5163886;27;20175;-53
2022/05/05 00:39:02;;;;;;;;;;;21.20;47.20;;;;;;5169496;27;20013;-57
2022/05/05 00:41:31;;;;;;;;;;;21.10;47.50;;;;;;5163784;27;19923;-57
2022/05/05 00:43:57;;;;;;;;;;;21.10;47.50;;;;;;5165668;27;19929;-55
2022/05/05 00:46:22;;;;;;;;;;;21.10;47.80;;;;;;5168161;27;19930;-58
2022/05/05 00:48:50;;;;;;;;;;;21.20;47.60;;;;;;5162052;27;19923;-57
2022/05/05 00:51:16;;;;;;;;;;;21.10;47.60;;;;;;5166928;27;19971;-55
2022/05/05 00:53:42;;;;;;;;;;;21.20;47.50;;;;;;5163216;27;20301;-57
2022/05/05 00:56:13;;;;;;;;;;;21.20;47.60;;;;;;5163527;27;19922;-56
2022/05/05 00:58:39;;;;;;;;;;;21.20;47.60;;;;;;5169246;27;20949;-56
2022/05/05 01:01:05;;;;;;;;;;;21.30;47.40;;;;;;5163628;27;19922;-56
2022/05/05 01:03:31;;;;;;;;;;;21.30;47.50;;;;;;5163687;27;20253;-57
2022/05/05 01:05:57;;;;;;;;;;;21.20;47.70;;;;;;5169083;27;19929;-57
2022/05/05 01:08:23;;;;;;;;;;;21.30;47.50;;;;;;5160549;27;20025;-57
2022/05/05 01:10:48;;;;;;;;;;;21.20;47.60;;;;;;5167925;27;19927;-56
2022/05/05 01:13:15;;;;;;;;;;;21.20;47.70;;;;;;5163206;27;19927;-56
2022/05/05 01:15:41;;;;;;;;;;;21.10;47.80;;;;;;5163347;27;20297;-55
2022/05/05 01:18:07;;;;;;;;;;;21.10;47.80;;;;;;5168778;27;19927;-57
2022/05/05 01:20:33;;;;;;;;;;;21.20;47.60;;;;;;5163418;27;19923;-59
2022/05/05 01:22:58;;;;;;;;;;;21.30;47.60;;;;;;5144458;27;19922;-55
2022/05/05 01:28:12;;;;;;;;;;;21.30;47.70;;;;;;5161275;27;19926;-57
2022/05/05 01:30:45;;;;;;;;;;;21.30;47.60;;;;;;5162792;27;20170;-55
2022/05/05 01:33:11;;;;;;;;;;;21.30;47.60;;;;;;5148982;27;20068;-58
2022/05/05 01:35:37;;;;;;;;;;;21.30;47.50;;;;;;5163054;27;19927;-57
2022/05/05 01:38:03;;;;;;;;;;;21.30;47.50;;;;;;5167014;27;19929;-59
2022/05/05 01:40:29;;;;;;;;;;;21.30;47.40;;;;;;5164950;27;20286;-56
2022/05/05 01:42:55;;;;;;;;;;;21.20;47.40;;;;;;5162973;27;20028;-58
2022/05/05 01:45:20;;;;;;;;;;;21.30;47.30;;;;;;5165098;27;20413;-57
2022/05/05 01:47:46;;;;;;;;;;;21.30;47.20;;;;;;5162061;27;19922;-57
2022/05/05 01:50:12;;;;;;;;;;;21.30;47.30;;;;;;5162679;27;20369;-58
2022/05/05 01:52:38;;;;;;;;;;;21.30;47.30;;;;;;5168419;27;19934;-56
2022/05/05 01:55:04;;;;;;;;;;;21.30;47.20;;;;;;5162668;27;20362;-57
2022/05/05 01:57:30;;;;;;;;;;;21.30;47.30;;;;;;5146074;27;19931;-58
2022/05/05 01:59:55;;;;;;;;;;;21.30;47.20;;;;;;5166954;27;19923;-58
2022/05/05 02:02:21;;;;;;;;;;;21.30;47.20;;;;;;5161151;27;19927;-57
2022/05/05 02:04:47;;;;;;;;;;;21.30;47.20;;;;;;5165739;27;19923;-58
2022/05/05 02:07:13;;;;;;;;;;;21.30;47.30;;;;;;5162267;27;19923;-57
2022/05/05 02:09:38;;;;;;;;;;;21.30;47.30;;;;;;5162600;27;19926;-59
2022/05/05 02:12:05;;;;;;;;;;;21.30;47.10;;;;;;5167896;27;20461;-57
2022/05/05 02:14:30;;;;;;;;;;;21.30;47.10;;;;;;5162284;27;19930;-57
2022/05/05 02:16:56;;;;;;;;;;;21.30;46.80;;;;;;5162559;27;20374;-56
2022/05/05 02:19:22;;;;;;;;;;;21.30;47.10;;;;;;5168185;27;20353;-58
2022/05/05 02:21:48;;;;;;;;;;;21.30;46.90;;;;;;5140365;27;19945;-58
2022/05/05 02:24:13;;;;;;;;;;;21.30;46.90;;;;;;5165731;27;19922;-57
2022/05/05 02:26:39;;;;;;;;;;;21.20;47.20;;;;;;5162149;27;19923;-58
2022/05/05 02:29:05;;;;;;;;;;;21.20;47.20;;;;;;5162376;27;19973;-58
2022/05/05 02:31:34;;;;;;;;;;;21.20;47.40;;;;;;5167692;27;19929;-58
2022/05/05 02:34:00;;;;;;;;;;;21.20;47.20;;;;;;5162399;27;19933;-56
2022/05/05 02:39:10;;;;;;;;;;;21.00;47.40;;;;;;5165894;27;19929;-58
2022/05/05 02:41:36;;;;;;;;;;;21.00;47.20;;;;;;5160224;27;19930;-58
2022/05/05 02:44:03;;;;;;;;;;;21.00;47.20;;;;;;5161542;27;19975;-56
2022/05/05 02:46:29;;;;;;;;;;;21.00;47.20;;;;;;5148932;27;19958;-55
2022/05/05 02:48:55;;;;;;;;;;;21.10;46.80;;;;;;5161888;27;20390;-57
2022/05/05 02:51:21;;;;;;;;;;;21.00;46.90;;;;;;5167507;27;20180;-56
2022/05/05 02:56:31;;;;;;;;;;;21.10;46.60;;;;;;5161908;27;19929;-58
2022/05/05 02:58:57;;;;;;;;;;;21.00;46.70;;;;;;5145672;27;20365;-56
2022/05/05 03:01:22;;;;;;;;;;;21.00;46.70;;;;;;5161043;27;19967;-58
2022/05/05 03:03:48;;;;;;;;;;;21.10;46.40;;;;;;5161504;27;19934;-57
2022/05/05 03:06:14;;;;;;;;;;;21.00;46.50;;;;;;5167320;27;19949;-56
2022/05/05 03:08:40;;;;;;;;;;;20.90;46.70;;;;;;5161743;27;19926;-58
2022/05/05 03:11:06;;;;;;;;;;;21.10;46.20;;;;;;5162091;27;19931;-55
2022/05/05 03:13:32;;;;;;;;;;;21.20;46.00;;;;;;5167281;27;19978;-57
2022/05/05 03:15:58;;;;;;;;;;;21.00;46.30;;;;;;5159748;27;19966;-55
2022/05/05 03:18:23;;;;;;;;;;;21.10;46.00;;;;;;5165167;27;19931;-58
2022/05/05 03:20:49;;;;;;;;;;;21.00;46.20;;;;;;5161121;27;19922;-58
2022/05/05 03:23:15;;;;;;;;;;;21.10;46.10;;;;;;5161323;27;19927;-58
2022/05/05 03:25:41;;;;;;;;;;;21.10;46.10;;;;;;5166920;27;20298;-58
2022/05/05 03:28:06;;;;;;;;;;;21.00;46.20;;;;;;5161447;27;19926;-52
2022/05/05 03:30:32;;;;;;;;;;;20.90;46.50;;;;;;5161561;27;19962;-57
2022/05/05 03:32:58;;;;;;;;;;;21.20;45.80;;;;;;5167004;27;20366;-57
2022/05/05 03:35:24;;;;;;;;;;;21.10;46.00;;;;;;5161281;27;19984;-56
2022/05/05 03:37:49;;;;;;;;;;;21.00;46.20;;;;;;5169557;27;19930;-55
2022/05/05 03:40:15;;;;;;;;;;;21.00;46.40;;;;;;5164731;27;19927;-58
2022/05/05 03:42:41;;;;;;;;;;;21.00;46.10;;;;;;5165021;27;20432;-58
2022/05/05 03:45:07;;;;;;;;;;;21.00;46.10;;;;;;5170289;27;19934;-56
2022/05/05 03:47:33;;;;;;;;;;;21.10;46.20;;;;;;5164954;27;20487;-57
2022/05/05 03:49:59;;;;;;;;;;;21.20;46.00;;;;;;5165170;27;20003;-50
2022/05/05 03:52:24;;;;;;;;;;;20.90;46.60;;;;;;5168886;27;19990;-54
2022/05/05 03:54:50;;;;;;;;;;;21.30;45.80;;;;;;5142662;27;19923;-57
2022/05/05 03:57:16;;;;;;;;;;;21.10;46.10;;;;;;5169683;27;19922;-59
2022/05/05 03:59:42;;;;;;;;;;;21.00;46.30;;;;;;5164582;27;21357;-56
2022/05/05 04:02:08;;;;;;;;;;;20.90;46.60;;;;;;5145915;27;19922;-56
2022/05/05 04:04:33;;;;;;;;;;;21.10;46.20;;;;;;5170101;27;19969;-57
2022/05/05 04:06:59;;;;;;;;;;;21.00;46.50;;;;;;5164732;27;19923;-57
2022/05/05 04:09:25;;;;;;;;;;;21.00;46.40;;;;;;5164791;27;20155;-58
2022/05/05 04:11:51;;;;;;;;;;;21.00;46.20;;;;;;5167017;27;19934;-54
2022/05/05 04:14:16;;;;;;;;;;;21.00;46.40;;;;;;5163307;27;20269;-50
2022/05/05 04:16:43;;;;;;;;;;;21.00;46.50;;;;;;5169313;27;19931;-57
2022/05/05 04:19:09;;;;;;;;;;;21.10;46.40;;;;;;5164989;27;19923;-58
2022/05/05 04:21:34;;;;;;;;;;;21.10;46.50;;;;;;5164401;27;19922;-55
2022/05/05 04:24:00;;;;;;;;;;;21.00;47.00;;;;;;5169857;27;20325;-56
2022/05/05 04:26:26;;;;;;;;;;;21.10;46.70;;;;;;5164276;27;19923;-50
2022/05/05 04:28:52;;;;;;;;;;;21.00;47.10;;;;;;5144757;27;19952;-54
2022/05/05 04:31:18;;;;;;;;;;;21.20;46.60;;;;;;5166951;27;19926;-58
2022/05/05 04:33:44;;;;;;;;;;;21.10;46.80;;;;;;5163630;27;19931;-54
2022/05/05 04:36:10;;;;;;;;;;;21.10;47.00;;;;;;5148153;27;19934;-55
2022/05/05 04:38:36;;;;;;;;;;;21.10;46.90;;;;;;5167418;27;19922;-56
2022/05/05 04:41:02;;;;;;;;;;;20.90;47.10;;;;;;5163941;27;19999;-57
2022/05/05 04:43:27;;;;;;;;;;;21.00;47.10;;;;;;5169607;27;20389;-58
2022/05/05 04:45:53;;;;;;;;;;;21.00;46.90;;;;;;5163599;27;19923;-54
2022/05/05 04:48:19;;;;;;;;;;;21.00;47.10;;;;;;5161295;27;19953;-55
2022/05/05 04:50:45;;;;;;;;;;;21.10;46.70;;;;;;5167751;27;20297;-48
2022/05/05 04:53:11;;;;;;;;;;;20.90;47.30;;;;;;5163426;27;19931;-56
2022/05/05 04:55:36;;;;;;;;;;;21.20;46.70;;;;;;5164087;27;20013;-56
2022/05/05 04:58:02;;;;;;;;;;;21.10;46.90;;;;;;5169015;27;19923;-57
2022/05/05 05:00:29;;;;;;;;;;;21.00;47.20;;;;;;5163877;27;19922;-54
2022/05/05 05:02:56;;;;;;;;;;;21.00;47.50;;;;;;5169415;27;20025;-58
2022/05/05 05:05:21;;;;;;;;;;;21.10;46.90;;;;;;5163298;27;19923;-55
2022/05/05 05:07:47;;;;;;;;;;;20.80;47.40;;;;;;5160665;27;19937;-57
2022/05/05 05:10:13;;;;;;;;;;;21.10;46.80;;;;;;5168345;27;19922;-57
2022/05/05 05:12:39;;;;;;;;;;;20.90;47.00;;;;;;5163507;27;19927;-56
2022/05/05 05:15:05;;;;;;;;;;;21.00;47.00;;;;;;5163713;27;19922;-53
2022/05/05 05:17:31;;;;;;;;;;;20.90;47.10;;;;;;5168856;27;19923;-55
2022/05/05 05:19:57;;;;;;;;;;;21.10;46.60;;;;;;5163610;27;19930;-51
2022/05/05 05:22:22;;;;;;;;;;;20.90;47.00;;;;;;5169078;27;19934;-54
2022/05/05 05:24:48;;;;;;;;;;;21.10;46.80;;;;;;5161082;27;19922;-56
2022/05/05 05:27:14;;;;;;;;;;;21.00;46.80;;;;;;5161634;27;19922;-57
2022/05/05 05:29:40;;;;;;;;;;;21.10;46.60;;;;;;5168384;27;19923;-58
2022/05/05 05:32:06;;;;;;;;;;;21.00;46.80;;;;;;5163166;27;19935;-47
2022/05/05 05:34:32;;;;;;;;;;;20.90;47.10;;;;;;5163109;27;20208;-58
2022/05/05 05:36:57;;;;;;;;;;;21.10;46.70;;;;;;5168600;27;19923;-56
2022/05/05 05:39:23;;;;;;;;;;;21.10;47.00;;;;;;5163351;27;20010;-58
2022/05/05 05:41:49;;;;;;;;;;;20.90;47.20;;;;;;5168619;27;20374;-58
2022/05/05 05:44:15;;;;;;;;;;;21.00;47.10;;;;;;5159713;27;19923;-57
2022/05/05 05:46:41;;;;;;;;;;;21.00;47.10;;;;;;5161971;27;19953;-57
2022/05/05 05:49:06;;;;;;;;;;;21.00;47.10;;;;;;5168172;27;19987;-56
2022/05/05 05:51:32;;;;;;;;;;;21.20;47.00;;;;;;5162941;27;20390;-55
2022/05/05 05:53:58;;;;;;;;;;;21.20;47.00;;;;;;5162934;27;20027;-55
2022/05/05 05:56:24;;;;;;;;;;;21.30;46.80;;;;;;5168550;27;19923;-56
2022/05/05 05:58:50;;;;;;;;;;;21.20;46.80;;;;;;5161950;27;19930;-58
2022/05/05 06:01:16;;;;;;;;;;;21.10;46.90;;;;;;5165128;27;20400;-58
2022/05/05 06:03:53;;;;;;;;;;;21.10;46.90;;;;;;5162131;27;20270;-55
2022/05/05 06:06:19;;;;;;;;;;;21.10;46.80;;;;;;5162436;27;19931;-56
2022/05/05 06:08:46;;;;;;;;;;;21.10;46.90;;;;;;5168027;27;20668;-57
2022/05/05 06:11:12;;;;;;;;;;;21.10;46.80;;;;;;5162532;27;19994;-56
2022/05/05 06:13:38;;;;;;;;;;;21.10;46.70;;;;;;5162284;27;19922;-57
2022/05/05 06:16:04;;;;;;;;;;;21.10;46.80;;;;;;5168321;27;19975;-55
2022/05/05 06:18:30;;;;;;;;;;;21.30;46.40;;;;;;5162562;27;19927;-56
2022/05/05 06:20:56;;;;;;;;;;;21.30;46.30;;;;;;5159348;27;20193;-58
2022/05/05 06:23:22;;;;;;;;;;;21.30;46.30;;;;;;5166886;27;19923;-56
2022/05/05 06:25:48;;;;;;;;;;;21.20;46.50;;;;;;5162122;27;20373;-57
2022/05/05 06:28:14;;;;;;;;;;;21.10;46.40;;;;;;5167556;27;19934;-56
2022/05/05 06:30:39;;;;;;;;;;;21.10;46.20;;;;;;5162150;27;19983;-56
2022/05/05 06:33:05;;;;;;;;;;;21.10;46.30;;;;;;5162480;27;19974;-54
2022/05/05 06:35:31;;;;;;;;;;;21.20;46.00;;;;;;5168193;27;19923;-55
2022/05/05 06:37:57;;;;;;;;;;;21.10;46.40;;;;;;5160392;27;20431;-57
2022/05/05 06:40:24;;;;;;;;;;;21.20;46.50;;;;;;5159870;27;20602;-56
2022/05/05 06:42:50;;;;;;;;;;;21.10;46.80;;;;;;5167258;27;20394;-57
2022/05/05 06:45:16;;;;;;;;;;;21.10;46.90;;;;;;5161820;27;19971;-57
2022/05/05 06:47:42;;;;;;;;;;;21.20;46.90;;;;;;5166554;27;20000;-57
2022/05/05 06:50:08;;;;;;;;;;;21.30;46.60;;;;;;5163063;27;19927;-58
2022/05/05 06:52:34;;;;;;;;;;;21.20;46.30;;;;;;5162150;27;20323;-58
2022/05/05 06:55:00;;;;;;;;;;;21.30;45.90;;;;;;5167308;27;19923;-57
2022/05/05 06:57:26;;;;;;;;;;;21.30;45.90;;;;;;5158536;27;19933;-58
2022/05/05 06:59:52;;;;;;;;;;;21.30;45.80;;;;;;5160746;27;20009;-58
2022/05/05 07:02:17;;;;;;;;;;;21.30;46.00;;;;;;5148566;27;19938;-57
2022/05/05 07:07:28;;;;;;;;;;;21.30;45.90;;;;;;5161740;27;20065;-58
2022/05/05 07:12:38;;;;;;;;;;;21.30;46.20;;;;;;5165577;27;20018;-55
2022/05/05 07:15:04;;;;;;;;;;;21.30;46.30;;;;;;5163183;27;19953;-56
2022/05/05 07:17:30;;;;;;;;;;;21.20;46.40;;;;;;5168853;27;19931;-57
2022/05/05 07:19:56;;;;;;;;;;;21.30;46.20;;;;;;5165001;27;20401;-56
2022/05/05 07:22:22;;;;;;;;;;;21.10;46.70;;;;;;5170840;27;20326;-56
2022/05/05 07:24:47;;;;;;;;;;;21.20;46.50;;;;;;5165113;27;19966;-57
2022/05/05 07:27:13;;;;;;;;;;;21.20;46.60;;;;;;5145716;27;19923;-58
2022/05/05 07:29:41;;;;;;;;;;;21.30;46.30;;;;;;5150803;27;20336;-57
2022/05/05 07:32:07;;;;;;;;;;;21.20;46.60;;;;;;5164896;27;19975;-58
2022/05/05 07:34:34;;;;;;;;;;;21.30;46.30;;;;;;5161646;27;19926;-55
2022/05/05 07:37:03;;;;;;;;;;;21.30;46.50;;;;;;5169629;27;19938;-56
2022/05/05 07:39:29;;;;;;;;;;;21.20;46.80;;;;;;5164655;27;19922;-55
2022/05/05 07:41:55;;;;;;;;;;;21.20;46.80;;;;;;5168737;27;20285;-57
2022/05/05 07:44:20;;;;;;;;;;;21.30;46.70;;;;;;5166421;27;19927;-57
2022/05/05 07:46:46;;;;;;;;;;;21.40;46.40;;;;;;5165102;27;19923;-57
2022/05/05 07:49:12;;;;;;;;;;;21.30;46.60;;;;;;5170566;27;19927;-57
2022/05/05 07:51:41;;;;;;;;;;;21.30;46.50;;;;;;5162657;27;20193;-57
2022/05/05 07:56:51;;;;;;;;;;;21.30;46.70;;;;;;5169755;27;19937;-56
2022/05/05 07:59:18;;;;;;;;;;;21.30;46.60;;;;;;5164615;27;20370;-58
2022/05/05 08:01:44;;;;;;;;;;;21.40;46.70;;;;;;5164547;27;19923;-55
2022/05/05 08:04:09;;;;;;;;;;;21.40;46.80;;;;;;5170167;27;20033;-56
2022/05/05 08:06:35;;;;;;;;;;;21.30;47.00;;;;;;5164684;27;19927;-58
2022/05/05 08:09:01;;;;;;;;;;;21.30;47.10;;;;;;5167854;27;20370;-59
2022/05/05 08:11:28;;;;;;;;;;;21.40;46.70;;;;;;5163291;27;19975;-58
2022/05/05 08:13:54;;;;;;;;;;;21.30;47.20;;;;;;5163515;27;20063;-56
2022/05/05 08:16:22;;;;;;;;;;;21.30;47.10;;;;;;5169622;27;19923;-57
2022/05/05 08:18:48;;;;;;;;;;;21.40;46.80;;;;;;5164194;27;20429;-57
2022/05/05 08:21:14;;;;;;;;;;;21.40;46.90;;;;;;5163206;27;19948;-58
2022/05/05 08:23:40;;;;;;;;;;;21.50;46.60;;;;;;5169420;27;20006;-56
2022/05/05 08:28:50;;;;;;;;;;;21.60;46.10;;;;;;5161486;27;20253;-57
2022/05/05 08:31:16;;;;;;;;;;;21.40;46.50;;;;;;5167749;27;19927;-58
2022/05/05 08:33:42;;;;;;;;;;;21.50;46.40;;;;;;5163680;27;19927;-58
2022/05/05 08:36:08;;;;;;;;;;;21.40;46.40;;;;;;5167181;27;20327;-56
2022/05/05 08:38:34;;;;;;;;;;;21.40;46.30;;;;;;5166918;27;19923;-58
2022/05/05 08:41:00;;;;;;;;;;;21.60;46.00;;;;;;5164048;27;19975;-58
2022/05/05 08:43:26;;;;;;;;;;;21.70;46.00;;;;;;5169311;27;19930;-58
2022/05/05 08:45:54;;;;;;;;;;;21.70;45.70;;;;;;5163147;27;20039;-56
2022/05/05 08:48:20;;;;;;;;;;;21.70;45.70;;;;;;5160514;27;20370;-56
2022/05/05 08:50:49;;;;;;;;;;;21.70;45.70;;;;;;5168270;27;19930;-55
2022/05/05 08:53:15;;;;;;;;;;;21.60;46.10;;;;;;5142781;27;19926;-59
2022/05/05 08:55:43;;;;;;;;;;;21.40;46.60;;;;;;5163409;27;19937;-56
2022/05/05 08:58:08;;;;;;;;;;;21.30;46.80;;;;;;5168930;27;19923;-58
2022/05/05 09:00:34;;;;;;;;;;;21.30;47.20;;;;;;5163814;27;20293;-56
2022/05/05 09:03:00;;;;;;;;;;;21.30;47.10;;;;;;5169327;27;20017;-57
2022/05/05 09:05:44;;;;;;;;;;;21.50;46.70;;;;;;5141930;27;20290;-58
2022/05/05 09:08:22;;;;;;;;;;;21.60;46.70;;;;;;5161910;27;19930;-55
2022/05/05 09:10:50;;;;;;;;;;;21.60;46.50;;;;;;5168734;27;19933;-58
2022/05/05 09:13:26;;;;;;;;;;;21.50;46.50;;;;;;5163271;27;20408;-58
2022/05/05 09:15:53;;;;;;;;;;;21.50;46.70;;;;;;5163324;27;19929;-57
2022/05/05 09:18:19;;;;;;;;;;;21.50;46.90;;;;;;5169172;27;19923;-58
2022/05/05 09:20:46;;;;;;;;;;;21.50;46.90;;;;;;5163645;27;19929;-56
2022/05/05 09:23:28;;;;;;;;;;;21.50;47.00;;;;;;5161729;27;20425;-57
2022/05/05 09:25:54;;;;;;;;;;;21.60;47.00;;;;;;5166422;27;20373;-55
2022/05/05 09:28:23;;;;;;;;;;;21.50;46.90;;;;;;5162829;27;19930;-56
2022/05/05 09:30:49;;;;;;;;;;;21.50;46.90;;;;;;5163289;27;19927;-57
2022/05/05 09:33:16;;;;;;;;;;;21.50;47.00;;;;;;5168435;27;19933;-57
2022/05/05 09:35:48;;;;;;;;;;;21.40;47.00;;;;;;5163143;27;19989;-54
2022/05/05 09:38:14;;;;;;;;;;;21.60;46.60;;;;;;5144068;27;19926;-58
2022/05/05 09:40:40;;;;;;;;;;;21.60;46.70;;;;;;5168397;27;20417;-56
2022/05/05 09:43:09;;;;;;;;;;;21.60;46.80;;;;;;5159676;27;19923;-54
2022/05/05 09:45:34;;;;;;;;;;;21.40;47.00;;;;;;5167648;27;20262;-57
2022/05/05 09:48:04;;;;;;;;;;;21.50;46.80;;;;;;5162356;27;19930;-57
2022/05/05 09:50:30;;;;;;;;;;;21.40;46.70;;;;;;5162814;27;19931;-58
2022/05/05 09:58:29;;;;;;;;;;;21.70;46.30;;;;;;5162840;27;19923;-57
2022/05/05 10:06:07;;;;;;;;;;;21.80;46.00;;;;;;5158491;27;20014;-58
2022/05/05 10:08:45;;;;;;;;;;;21.80;45.90;;;;;;5168108;27;20343;-58
2022/05/05 10:11:14;;;;;;;;;;;21.80;46.10;;;;;;5162381;27;19923;-56
2022/05/05 10:13:40;;;;;;;;;;;21.60;46.60;;;;;;5162610;27;20449;-58
2022/05/05 10:16:06;;;;;;;;;;;21.80;46.20;;;;;;5168012;27;20336;-57
2022/05/05 10:18:32;;;;;;;;;;;21.80;46.30;;;;;;5160174;27;20592;-58
2022/05/05 10:20:58;;;;;;;;;;;21.80;46.10;;;;;;5160192;27;20623;-57
2022/05/05 10:23:26;;;;;;;;;;;21.80;46.00;;;;;;5167504;27;19923;-56
2022/05/05 10:25:52;;;;;;;;;;;21.80;46.00;;;;;;5162148;27;20257;-56
2022/05/05 10:28:37;;;;;;;;;;;21.80;46.00;;;;;;5167356;27;19930;-57
2022/05/05 10:31:02;;;;;;;;;;;21.80;46.00;;;;;;5167759;27;20374;-58
2022/05/05 10:33:56;;;;;;;;;;;21.80;45.60;;;;;;5162555;27;19933;-57
2022/05/05 10:36:25;;;;;;;;;;;21.80;45.70;;;;;;5160712;27;20057;-56
2022/05/05 10:38:51;;;;;;;;;;;21.90;45.60;;;;;;5164999;27;20347;-58
2022/05/05 10:41:29;;;;;;;;;;;21.90;45.60;;;;;;5143080;27;19926;-57
2022/05/05 10:44:18;;;;;;;;;;;21.90;45.50;;;;;;5162919;27;19929;-57
2022/05/05 10:46:49;;;;;;;;;;;21.80;45.70;;;;;;5149140;27;20122;-57
2022/05/05 10:49:34;;;;;;;;;;;21.80;45.50;;;;;;5162071;27;19945;-58
2022/05/05 10:52:12;;;;;;;;;;;21.80;45.60;;;;;;5162158;27;20015;-56
2022/05/05 10:54:47;;;;;;;;;;;21.70;45.80;;;;;;5166584;27;20370;-57
2022/05/05 10:57:25;;;;;;;;;;;21.80;45.60;;;;;;5159339;27;20405;-58
2022/05/05 11:00:12;;;;;;;;;;;21.70;45.70;;;;;;5161295;27;20026;-57
2022/05/05 11:02:40;;;;;;;;;;;21.80;45.70;;;;;;5166630;27;21295;-58
2022/05/05 11:05:21;;;;;;;;;;;21.90;45.30;;;;;;5161803;27;19927;-57
2022/05/05 11:07:51;;;;;;;;;;;22.00;45.10;;;;;;5161877;27;20013;-58
2022/05/05 11:10:36;;;;;;;;;;;21.90;45.00;;;;;;5167318;27;20220;-56
2022/05/05 11:13:02;;;;;;;;;;;21.80;45.20;;;;;;5160808;27;19930;-56
2022/05/05 11:23:56;;;;;;;;;;;21.80;46.60;;;;;;5161423;27;20067;-58
2022/05/05 11:26:22;;;;;;;;;;;21.80;47.10;;;;;;5166622;27;19933;-58
2022/05/05 11:28:48;;;;;;;;;;;21.70;47.20;;;;;;5162409;27;20286;-57
2022/05/05 11:31:19;;;;;;;;;;;21.80;47.40;;;;;;5161125;27;19975;-57
2022/05/05 11:33:52;;;;;;;;;;;21.70;47.60;;;;;;5145460;27;20018;-57
2022/05/05 11:36:18;;;;;;;;;;;21.60;47.50;;;;;;5160942;27;19923;-57
2022/05/05 11:38:44;;;;;;;;;;;21.70;47.20;;;;;;5161307;27;20018;-57
2022/05/05 11:41:09;;;;;;;;;;;21.90;46.70;;;;;;5147364;27;20746;-58
2022/05/05 11:46:20;;;;;;;;;;;21.80;47.00;;;;;;5145760;27;19933;-54
2022/05/05 11:48:53;;;;;;;;;;;21.80;47.50;;;;;;5167149;27;20363;-58
2022/05/05 11:51:25;;;;;;;;;;;21.90;47.50;;;;;;5158234;27;19923;-57
2022/05/05 11:54:17;;;;;;;;;;;22.00;47.20;;;;;;5160076;27;20017;-58
2022/05/05 11:56:44;;;;;;;;;;;21.90;47.30;;;;;;5160191;27;20068;-57
2022/05/05 12:02:05;;;;;;;;;;;22.00;47.40;;;;;;5163747;27;19922;-58
2022/05/05 12:04:32;;;;;;;;;;;22.00;47.50;;;;;;5170391;27;19929;-56
2022/05/05 12:06:58;;;;;;;;;;;22.00;47.70;;;;;;5146407;27;19933;-56
2022/05/05 12:09:25;;;;;;;;;;;22.00;47.60;;;;;;5161991;27;19945;-57
2022/05/05 12:11:51;;;;;;;;;;;21.90;48.10;;;;;;5132716;27;19954;-57
2022/05/05 12:14:22;;;;;;;;;;;21.90;48.00;;;;;;5164132;27;19971;-58
2022/05/05 12:16:48;;;;;;;;;;;22.00;47.90;;;;;;5166530;27;19922;-58
2022/05/05 12:19:14;;;;;;;;;;;21.90;48.00;;;;;;5168013;27;19931;-58
2022/05/05 12:21:50;;;;;;;;;;;22.00;47.90;;;;;;5164444;27;19927;-57
2022/05/05 12:24:16;;;;;;;;;;;22.00;48.00;;;;;;5169990;27;20288;-58
2022/05/05 12:26:42;;;;;;;;;;;21.80;48.60;;;;;;5143338;27;19930;-56
2022/05/05 12:29:12;;;;;;;;;;;21.80;48.80;;;;;;5161666;27;19966;-57
2022/05/05 12:31:38;;;;;;;;;;;21.60;49.40;;;;;;5169117;27;19923;-56
2022/05/05 12:34:04;;;;;;;;;;;21.80;49.10;;;;;;5163843;27;19927;-58
2022/05/05 12:36:29;;;;;;;;;;;21.80;48.80;;;;;;5163971;27;21263;-57
2022/05/05 12:39:11;;;;;;;;;;;21.80;48.80;;;;;;5150950;27;19926;-57
2022/05/05 12:41:37;;;;;;;;;;;21.80;48.40;;;;;;5164229;27;20406;-57
2022/05/05 12:44:08;;;;;;;;;;;21.90;48.10;;;;;;5163936;27;19931;-57
2022/05/05 12:46:34;;;;;;;;;;;21.90;48.00;;;;;;5166132;27;20377;-57
2022/05/05 12:48:59;;;;;;;;;;;22.10;47.50;;;;;;5162824;27;19926;-58
2022/05/05 12:51:28;;;;;;;;;;;22.00;47.20;;;;;;5169095;27;20390;-56
2022/05/05 12:59:39;;;;;;;;;;;22.10;47.20;;;;;;5166281;27;19954;-57
2022/05/05 13:02:05;;;;;;;;;;;22.10;47.20;;;;;;5169269;27;20338;-59
2022/05/05 13:04:30;;;;;;;;;;;22.10;47.20;;;;;;5160796;27;20021;-58
2022/05/05 13:06:56;;;;;;;;;;;21.90;47.60;;;;;;5166785;27;19923;-58
2022/05/05 13:09:22;;;;;;;;;;;22.00;47.70;;;;;;5163187;27;19926;-56
2022/05/05 13:11:51;;;;;;;;;;;22.00;47.60;;;;;;5163503;27;20817;-59
2022/05/05 13:14:17;;;;;;;;;;;22.00;47.60;;;;;;5168966;27;19922;-58
2022/05/05 13:16:42;;;;;;;;;;;21.90;47.80;;;;;;5163842;27;19995;-56
2022/05/05 13:19:09;;;;;;;;;;;21.90;48.00;;;;;;5163390;27;20407;-59
2022/05/05 13:21:41;;;;;;;;;;;21.90;48.10;;;;;;5167927;27;19937;-56
2022/05/05 13:24:07;;;;;;;;;;;21.90;48.30;;;;;;5160288;27;20013;-56
2022/05/05 13:26:33;;;;;;;;;;;21.90;48.50;;;;;;5144291;27;19975;-58
2022/05/05 13:29:00;;;;;;;;;;;22.00;48.20;;;;;;5168459;27;19923;-58
2022/05/05 13:31:26;;;;;;;;;;;22.10;48.00;;;;;;5163149;27;19923;-57
2022/05/05 13:33:52;;;;;;;;;;;22.00;48.30;;;;;;5168696;27;19929;-57
2022/05/05 13:36:18;;;;;;;;;;;21.80;48.50;;;;;;5163234;27;20026;-57
2022/05/05 13:38:44;;;;;;;;;;;21.80;48.90;;;;;;5163380;27;20335;-56
2022/05/05 13:41:09;;;;;;;;;;;21.90;48.80;;;;;;5147216;27;19979;-57
2022/05/05 13:43:36;;;;;;;;;;;21.80;48.80;;;;;;5161064;27;19962;-57
2022/05/05 13:46:01;;;;;;;;;;;21.90;48.30;;;;;;5162442;27;19965;-56
2022/05/05 13:48:27;;;;;;;;;;;21.80;48.50;;;;;;5168367;27;20366;-58
2022/05/05 13:50:53;;;;;;;;;;;21.80;48.80;;;;;;5162900;27;19927;-55
2022/05/05 13:53:19;;;;;;;;;;;21.70;49.30;;;;;;5168502;27;19927;-57
2022/05/05 13:55:45;;;;;;;;;;;21.60;49.40;;;;;;5162885;27;19923;-57
2022/05/05 13:58:12;;;;;;;;;;;21.80;48.90;;;;;;5162032;27;20346;-58
2022/05/05 14:00:38;;;;;;;;;;;21.80;48.50;;;;;;5164807;27;20005;-57
2022/05/05 14:03:04;;;;;;;;;;;21.80;48.50;;;;;;5161895;27;19952;-58
2022/05/05 14:05:31;;;;;;;;;;;21.80;48.80;;;;;;5162109;27;20026;-56
2022/05/05 14:13:29;;;;;;;;;;;22.00;48.30;;;;;;5162693;27;20396;-58
2022/05/05 14:15:58;;;;;;;;;;;22.00;48.10;;;;;;5132111;27;20009;-54
2022/05/05 14:18:24;;;;;;;;;;;21.90;48.70;;;;;;5158178;27;20408;-56
2022/05/05 14:20:50;;;;;;;;;;;21.90;48.70;;;;;;5161028;27;19927;-58
2022/05/05 14:23:16;;;;;;;;;;;21.90;48.60;;;;;;5167511;27;20022;-57
2022/05/05 14:25:42;;;;;;;;;;;21.90;48.30;;;;;;5162094;27;19923;-59
2022/05/05 14:28:13;;;;;;;;;;;22.00;48.00;;;;;;5167482;27;19922;-57
2022/05/05 14:30:42;;;;;;;;;;;22.10;47.70;;;;;;5162244;27;19933;-58
2022/05/05 14:33:08;;;;;;;;;;;22.00;48.10;;;;;;5162140;27;19999;-57
2022/05/05 14:35:34;;;;;;;;;;;22.00;48.20;;;;;;5165892;27;19923;-57
2022/05/05 14:38:01;;;;;;;;;;;22.10;47.60;;;;;;5159857;27;20389;-58
2022/05/05 14:40:30;;;;;;;;;;;22.10;47.40;;;;;;5161765;27;19929;-58
2022/05/05 14:42:56;;;;;;;;;;;22.00;47.70;;;;;;5167538;27;19926;-57
2022/05/05 14:45:21;;;;;;;;;;;22.00;47.80;;;;;;5143553;27;19922;-58
2022/05/05 14:47:47;;;;;;;;;;;22.00;48.10;;;;;;5163595;27;20271;-57
2022/05/05 14:50:13;;;;;;;;;;;22.20;47.60;;;;;;5166459;27;19931;-56
2022/05/05 14:52:41;;;;;;;;;;;22.20;47.50;;;;;;5143311;27;19926;-57
2022/05/05 14:55:07;;;;;;;;;;;22.20;47.70;;;;;;5164232;27;19952;-54
2022/05/05 14:57:33;;;;;;;;;;;22.20;47.40;;;;;;5142284;27;20342;-56
2022/05/05 14:59:59;;;;;;;;;;;22.20;47.30;;;;;;5161697;27;19931;-57
2022/05/05 15:02:25;;;;;;;;;;;22.30;47.00;;;;;;5167380;27;19933;-57
2022/05/05 15:04:51;;;;;;;;;;;22.30;47.30;;;;;;5143150;27;19933;-56
2022/05/05 15:07:16;;;;;;;;;;;22.30;47.50;;;;;;5161881;27;19935;-57
2022/05/05 15:09:42;;;;;;;;;;;22.30;47.30;;;;;;5148690;27;19923;-58
2022/05/05 15:12:08;;;;;;;;;;;22.30;46.70;;;;;;5160221;27;19946;-56
2022/05/05 15:14:35;;;;;;;;;;;22.20;47.00;;;;;;5164741;27;19981;-57